Decoded Metar for KUTS (HUNTSVILLE in TX, USA) (IATA:UTS) | Meteo·Mobile Aviation Weather
aviador You're here:

KUTS Decoded Metar

HUNTSVILLE in TX, USA
Report Time2018-08-20 17:53:00
UTC Time2018-08-20 18:45:14
Flight Rules vfr VFR
Wind250° at 08 Gusting to 15 kt
W.Decomp.*RWY 18: 3.5 kt HW 7.2 kt RCW
W.Rank250° ranks 30
Current wind is above 250° avg. (6.0)
Visibility9999 m
Phenomena:N/A
Clouds:Few 046 Hf
Expected CloudBase > 5,200 ft AGL from Temp-Dew spread
CeilingNone
Temp34°C (ISA +20)
Dew Point21°C (47% RH)
Heat Index37.4°C
QNH1016 hPa
Density Alt2,805 ft
Elevation341 ft
Report Wrong Elevation
Raw Report
KUTS 201753Z AUTO 25008G15KT 10SM FEW046 34/21 A3001 RMK AO2
SLP155 T03390211 10344 20261 58005=

Extra information for KUTS:More info

Metar Taf Metar & Taf Last 4 Metars F.Rules Stats Wind Profile Meteogram Temp Stats Airport Information Weather charts Add Link Nearby VenuesMetar ALERT Operation Metar Decoded Social comments

AIRNAV info for KUTS